Bordeaux-Mérignac Airport

LFBD · Gironde, Nouvelle-Aquitaine, 法国

使用的METAR站距离机场97 km。
罗盘
风向 的 风向 的 风向 到 风向 120° Bordeaux-Mérignac Airport 5/23
风: 3 kt, 1 beaufort

1 kt

3 kt
改变
0 ft 1.000 2.000 3.000 4.000 5.000
没有观察到明显的云
METAR LFBE 041830Z AUTO 12003KT 080V150 9999 -RA NSC 07/05 Q1014 TEMPO 22015G25KT 4000 SHRA BKN020TCU

METAR Bordeaux-Mérignac Airport - LFBD/BOD

Bordeaux-Mérignac Airport是,法国中的大型机场。 该机场位于纬度44,82870和经度-0,71478。 该机场有2条跑道: 5/23 和 11/29. 本场的ICAO机场代码为LFBD。 该机场的IATA代码为BOD。 机场在Bordeaux FIR中。

该航空气象观测是针对Bergerac-Dordogne Perigord在2024年3月4日 19:30, 当地时间进行的。

机场观察

风向为120°,速度为3 kt。 风向在080°和150°之间变化。

可见度为10 km 或者更多。

有没有观察到明显的云。 没有观察到天花板。

当前天气为光 雨。 温度为7 °C,阵风为5 °C。 露点为5 °C,相对湿度为87%。 海平面上的气压为1014 hPa (QNH)。

发展趋势

  • 暂时的

    风来自220°方向,速度为15 kt。 预计25 kt阵风。 可见性变为4 km。 重大天气:阵雨 雨。 碎云 高耸的积云在2.000 ft的高度.

白天

今天,太阳从07:34升起,在18:54降落。 这适用于Bordeaux-Mérignac Airport,世界夏令时可能有所不同。 当地时间与世界标准时间之间的时差为+1 小时。 当前,没有夏令时有效。

公司介绍

在这个机场,你可以找到飞行俱乐部。 本场上唯一已知的公司是CAPAM。

体会

到Vliegles.nl去找飞行课程,跳伞和其他飞行体验。 浏览页面,了解Bordeaux-Mérignac Airport附近所有可用的活动。 你也可以使用搜索功能来寻找你所在地附近的特定飞行课程、跳伞或其他飞行体验。

跑道

Id 标题 侧风 逆风 侧风 %
5/23 045°-225° 3 kt 97 %
11/29 106°-286° 3 kt 24 %

逆风成分最大的方向会被突出显示,并用于横风计算。 这并不一定意味着这个方向在使用。

乌云

- NSC 没有观察到明显的云
2.000 ft BKN 暂时的 碎云 高耸的积云

温度 & 天气

天气 光 雨
温度 7 °C
露点 5 °C
相对湿度 87%
风寒 5 °C
Kp-index 1 (0-9)

白天

日出
07:29 (11:32)
中午
13:09
日落
18:49

小工具

你想在你的网站上有一个关于Bordeaux-Mérignac Airport的当前航空天气(METAR)的小部件吗?

显示HTML代码
?>